Time;durP1;ratioP1;P1;durP2;ratioP2;P2;SDS_P1;SDS_P2;PMS_P1;PMS_P2;Temp;Humidity;BMP_temperature;BMP_pressure;BME280_temperature;BME280_humidity;BME280_pressure;Samples;Min_cycle;Max_cycle;Signal;HPM_P1;HPM_P2
2022/05/27 00:00:28;;;;;;;5.27;3.60;;;;;;;;;;721773;195;630063;-81
2022/05/27 00:02:53;;;;;;;8.03;3.37;;;;;;;;;;721429;195;633308;-81
2022/05/27 00:05:19;;;;;;;4.40;3.47;;;;;;;;;;732002;194;627335;-81
2022/05/27 00:07:45;;;;;;;4.10;3.37;;;;;;;;;;723831;194;638307;-81
2022/05/27 00:10:11;;;;;;;5.30;3.57;;;;;;;;;;723429;191;623647;-81
2022/05/27 00:12:37;;;;;;;4.10;3.00;;;;;;;;;;730599;191;636499;-81
2022/05/27 00:15:03;;;;;;;5.10;3.40;;;;;;;;;;723287;195;624468;-81
2022/05/27 00:17:29;;;;;;;4.53;3.03;;;;;;;;;;721066;193;856829;-81
2022/05/27 00:19:55;;;;;;;4.30;3.33;;;;;;;;;;722428;195;623642;-81
2022/05/27 00:22:20;;;;;;;6.40;4.70;;;;;;;;;;723721;195;633017;-81
2022/05/27 00:24:46;;;;;;;5.20;3.60;;;;;;;;;;724258;195;813771;-81
2022/05/27 00:27:12;;;;;;;7.30;3.83;;;;;;;;;;721486;193;644550;-81
2022/05/27 00:29:38;;;;;;;7.20;4.57;;;;;;;;;;728388;194;635686;-81
2022/05/27 00:32:05;;;;;;;5.90;4.27;;;;;;;;;;717673;195;615811;-81
2022/05/27 00:34:30;;;;;;;4.90;3.93;;;;;;;;;;721944;194;642695;-82
2022/05/27 00:36:56;;;;;;;5.10;4.00;;;;;;;;;;725368;193;628779;-81
2022/05/27 00:39:22;;;;;;;5.83;3.63;;;;;;;;;;727530;189;634499;-81
2022/05/27 00:41:48;;;;;;;7.03;4.27;;;;;;;;;;727517;189;624042;-81
2022/05/27 00:44:13;;;;;;;6.23;4.40;;;;;;;;;;733727;190;658782;-81
2022/05/27 00:46:39;;;;;;;8.30;4.17;;;;;;;;;;725092;192;658125;-81
2022/05/27 00:49:05;;;;;;;8.03;4.70;;;;;;;;;;724889;191;619929;-81
2022/05/27 00:51:31;;;;;;;7.27;5.67;;;;;;;;;;728593;193;650642;-81
2022/05/27 00:53:58;;;;;;;7.10;4.20;;;;;;;;;;733727;189;641281;-81
2022/05/27 00:56:24;;;;;;;7.33;4.20;;;;;;;;;;737430;189;26613;-81
2022/05/27 00:58:49;;;;;;;5.72;4.25;;;;;;;;;;728403;191;641347;-81
2022/05/27 01:01:15;;;;;;;6.20;4.13;;;;;;;;;;727141;192;634813;-81
2022/05/27 01:03:41;;;;;;;6.43;4.00;;;;;;;;;;723181;193;667088;-81
2022/05/27 01:06:07;;;;;;;17.20;5.23;;;;;;;;;;725095;193;1020079;-81
2022/05/27 01:08:33;;;;;;;6.10;4.63;;;;;;;;;;728322;190;668836;-82
2022/05/27 01:11:13;;;;;;;7.20;4.20;;;;;;;;;;727818;189;690695;-82
2022/05/27 01:13:57;;;;;;;6.20;4.47;;;;;;;;;;725041;191;647944;-81
2022/05/27 01:16:28;;;;;;;5.60;4.57;;;;;;;;;;727067;191;634843;-81
2022/05/27 01:21:32;;;;;;;5.70;3.67;;;;;;;;;;730045;195;620640;-82
2022/05/27 01:24:03;;;;;;;5.27;4.03;;;;;;;;;;727710;195;872058;-82
2022/05/27 01:26:28;;;;;;;4.75;3.72;;;;;;;;;;728561;194;614019;-82
2022/05/27 01:28:55;;;;;;;5.40;3.97;;;;;;;;;;729446;194;650550;-82
2022/05/27 01:31:24;;;;;;;5.53;4.10;;;;;;;;;;724917;194;1007482;-82
2022/05/27 01:34:08;;;;;;;6.50;3.80;;;;;;;;;;728643;194;659964;-81
2022/05/27 01:36:50;;;;;;;5.20;4.23;;;;;;;;;;726407;193;660977;-82
2022/05/27 01:39:21;;;;;;;6.10;4.67;;;;;;;;;;729027;193;622661;-81
2022/05/27 01:41:47;;;;;;;4.47;3.53;;;;;;;;;;726291;189;626781;-82
2022/05/27 01:44:13;;;;;;;4.87;4.37;;;;;;;;;;714717;194;638058;-81
2022/05/27 01:46:41;;;;;;;6.10;4.00;;;;;;;;;;724300;194;660760;-82
2022/05/27 01:49:23;;;;;;;5.30;4.10;;;;;;;;;;729395;194;613950;-82
2022/05/27 01:51:49;;;;;;;4.67;4.17;;;;;;;;;;729502;191;858086;-82
2022/05/27 01:54:16;;;;;;;3.83;3.20;;;;;;;;;;727909;192;634716;-82
2022/05/27 01:56:42;;;;;;;5.40;3.73;;;;;;;;;;725831;194;637798;-82
2022/05/27 01:59:09;;;;;;;7.13;4.67;;;;;;;;;;728643;194;805491;-82
2022/05/27 02:01:35;;;;;;;6.37;4.50;;;;;;;;;;724563;191;657341;-83
2022/05/27 02:04:01;;;;;;;7.67;4.20;;;;;;;;;;723171;194;651366;-82
2022/05/27 02:06:29;;;;;;;6.63;3.90;;;;;;;;;;722341;193;697092;-83
2022/05/27 02:08:55;;;;;;;6.60;4.07;;;;;;;;;;726414;193;632019;-83
2022/05/27 02:11:20;;;;;;;5.05;4.05;;;;;;;;;;724660;194;662122;-83
2022/05/27 02:14:02;;;;;;;6.30;4.60;;;;;;;;;;724361;195;643169;-82
2022/05/27 02:16:29;;;;;;;7.03;4.30;;;;;;;;;;722760;195;636937;-82
2022/05/27 02:18:54;;;;;;;4.30;3.90;;;;;;;;;;725168;195;644870;-82
2022/05/27 02:21:24;;;;;;;6.63;3.93;;;;;;;;;;723066;194;643861;-82
2022/05/27 02:23:50;;;;;;;4.60;3.37;;;;;;;;;;724940;194;627470;-82
2022/05/27 02:26:16;;;;;;;5.47;4.07;;;;;;;;;;723219;193;639010;-82
2022/05/27 02:28:42;;;;;;;5.43;4.03;;;;;;;;;;728808;193;653596;-82
2022/05/27 02:31:08;;;;;;;4.47;3.77;;;;;;;;;;721104;195;619847;-82
2022/05/27 02:36:06;;;;;;;6.00;4.50;;;;;;;;;;724632;194;686925;-81
2022/05/27 02:38:31;;;;;;;4.80;4.00;;;;;;;;;;720069;194;635401;-82
2022/05/27 02:40:57;;;;;;;6.23;4.23;;;;;;;;;;716745;195;642725;-82
2022/05/27 02:43:29;;;;;;;5.80;4.63;;;;;;;;;;716501;196;624384;-82
2022/05/27 02:45:56;;;;;;;6.57;3.67;;;;;;;;;;728146;194;647221;-81
2022/05/27 02:48:27;;;;;;;5.20;4.23;;;;;;;;;;724707;194;646417;-82
2022/05/27 02:50:55;;;;;;;7.13;4.17;;;;;;;;;;723309;194;711289;-82
2022/05/27 02:53:23;;;;;;;6.40;4.53;;;;;;;;;;723386;194;645915;-82
2022/05/27 02:55:51;;;;;;;4.90;4.37;;;;;;;;;;725025;195;650400;-82
2022/05/27 02:58:16;;;;;;;7.80;5.10;;;;;;;;;;722141;195;627178;-82
2022/05/27 03:00:42;;;;;;;5.17;4.60;;;;;;;;;;723163;195;614616;-82
2022/05/27 03:03:08;;;;;;;7.10;5.47;;;;;;;;;;722106;193;647182;-82
2022/05/27 03:05:40;;;;;;;5.80;4.23;;;;;;;;;;724457;192;634203;-82
2022/05/27 03:08:09;;;;;;;6.23;5.63;;;;;;;;;;724128;193;677346;-82
2022/05/27 03:10:38;;;;;;;6.23;5.50;;;;;;;;;;725165;194;635953;-82
2022/05/27 03:13:15;;;;;;;6.50;5.40;;;;;;;;;;722855;193;713090;-83
2022/05/27 03:15:44;;;;;;;7.17;5.37;;;;;;;;;;726214;193;628350;-82
2022/05/27 03:18:11;;;;;;;6.80;4.70;;;;;;;;;;725534;195;616153;-82
2022/05/27 03:20:39;;;;;;;6.10;4.70;;;;;;;;;;725499;194;634998;-82
2022/05/27 03:23:06;;;;;;;8.33;5.67;;;;;;;;;;724536;194;663176;-82
2022/05/27 03:25:43;;;;;;;6.97;5.63;;;;;;;;;;727831;194;643427;-82
2022/05/27 03:28:10;;;;;;;7.80;5.47;;;;;;;;;;718970;194;649100;-82
2022/05/27 03:30:37;;;;;;;8.13;6.37;;;;;;;;;;720362;194;665077;-83
2022/05/27 03:33:21;;;;;;;6.23;5.17;;;;;;;;;;726183;193;655587;-83
2022/05/27 03:35:48;;;;;;;8.07;5.80;;;;;;;;;;721838;195;641744;-82
2022/05/27 03:38:15;;;;;;;10.40;5.93;;;;;;;;;;722698;195;625110;-82
2022/05/27 03:40:57;;;;;;;6.80;5.90;;;;;;;;;;719935;195;653106;-83
2022/05/27 03:43:23;;;;;;;10.90;6.67;;;;;;;;;;719647;193;637099;-83
2022/05/27 03:45:51;;;;;;;9.27;7.50;;;;;;;;;;721319;193;638980;-83
2022/05/27 03:48:16;;;;;;;10.40;8.10;;;;;;;;;;721346;194;650294;-83
2022/05/27 03:50:42;;;;;;;10.10;8.23;;;;;;;;;;727469;194;641376;-83
2022/05/27 03:53:08;;;;;;;9.57;8.60;;;;;;;;;;720886;195;616910;-84
2022/05/27 03:55:34;;;;;;;12.10;9.20;;;;;;;;;;725461;194;670422;-83
2022/05/27 03:58:00;;;;;;;13.33;9.40;;;;;;;;;;727374;194;623592;-83
2022/05/27 04:00:26;;;;;;;15.57;10.77;;;;;;;;;;723247;194;648659;-83
2022/05/27 04:02:52;;;;;;;15.27;10.93;;;;;;;;;;723790;194;627576;-84
2022/05/27 04:05:17;;;;;;;15.87;11.50;;;;;;;;;;728894;194;639016;-83
2022/05/27 04:07:43;;;;;;;13.40;10.90;;;;;;;;;;724861;194;882756;-83
2022/05/27 04:10:09;;;;;;;17.23;11.70;;;;;;;;;;722207;195;636608;-83
2022/05/27 04:12:36;;;;;;;15.87;11.43;;;;;;;;;;723764;193;650568;-82
2022/05/27 04:15:01;;;;;;;17.23;12.07;;;;;;;;;;726542;194;645066;-82
2022/05/27 04:17:30;;;;;;;16.07;12.37;;;;;;;;;;725531;193;619853;-82
2022/05/27 04:19:53;;;;;;;15.97;11.07;;;;;;;;;;724364;193;912212;-82
2022/05/27 04:22:19;;;;;;;14.03;11.73;;;;;;;;;;729432;194;816193;-81
2022/05/27 04:24:45;;;;;;;23.23;14.43;;;;;;;;;;725295;194;615522;-81
2022/05/27 04:27:12;;;;;;;20.27;13.90;;;;;;;;;;723110;193;617690;-81
2022/05/27 04:29:39;;;;;;;18.40;14.13;;;;;;;;;;726560;193;614782;-81
2022/05/27 04:32:04;;;;;;;19.40;13.93;;;;;;;;;;724990;194;622759;-81
2022/05/27 04:34:31;;;;;;;20.40;13.60;;;;;;;;;;725401;194;618451;-81
2022/05/27 04:36:57;;;;;;;16.80;13.23;;;;;;;;;;723055;193;635810;-81
2022/05/27 04:39:23;;;;;;;17.53;13.80;;;;;;;;;;727954;194;634414;-82
2022/05/27 04:41:48;;;;;;;18.00;14.30;;;;;;;;;;718955;194;638820;-81
2022/05/27 04:44:14;;;;;;;17.23;13.47;;;;;;;;;;716812;196;643570;-81
2022/05/27 04:46:43;;;;;;;17.00;13.07;;;;;;;;;;721923;195;645297;-81
2022/05/27 04:49:06;;;;;;;17.03;13.63;;;;;;;;;;723907;193;614335;-81
2022/05/27 04:51:32;;;;;;;12.43;11.10;;;;;;;;;;723274;193;670377;-81
2022/05/27 04:53:58;;;;;;;13.53;11.97;;;;;;;;;;728627;195;664603;-81
2022/05/27 04:56:24;;;;;;;12.17;10.87;;;;;;;;;;725331;194;696683;-82
2022/05/27 04:58:49;;;;;;;13.50;11.07;;;;;;;;;;723540;194;621488;-81
2022/05/27 05:01:15;;;;;;;18.37;10.90;;;;;;;;;;721657;194;892729;-80
2022/05/27 05:03:41;;;;;;;11.63;10.43;;;;;;;;;;726715;194;730415;-81
2022/05/27 05:06:07;;;;;;;12.03;10.83;;;;;;;;;;722219;194;654573;-80
2022/05/27 05:08:33;;;;;;;11.10;10.00;;;;;;;;;;723188;195;639884;-81
2022/05/27 05:10:59;;;;;;;10.30;9.20;;;;;;;;;;726062;193;630091;-80
2022/05/27 05:13:25;;;;;;;10.83;9.73;;;;;;;;;;723464;195;907223;-82
2022/05/27 05:15:51;;;;;;;12.20;8.80;;;;;;;;;;725073;195;642232;-81
2022/05/27 05:18:17;;;;;;;13.80;10.20;;;;;;;;;;725534;193;619454;-81
2022/05/27 05:20:43;;;;;;;8.97;8.07;;;;;;;;;;721241;195;663610;-81
2022/05/27 05:23:09;;;;;;;7.60;6.43;;;;;;;;;;725167;195;638187;-81
2022/05/27 05:25:35;;;;;;;7.20;6.50;;;;;;;;;;724788;195;642503;-81
2022/05/27 05:28:01;;;;;;;7.33;6.63;;;;;;;;;;725395;195;676322;-79
2022/05/27 05:30:27;;;;;;;6.90;6.20;;;;;;;;;;724725;194;633915;-80
2022/05/27 05:32:52;;;;;;;5.53;4.40;;;;;;;;;;723749;194;632968;-81
2022/05/27 05:35:18;;;;;;;5.50;5.00;;;;;;;;;;728139;194;808394;-80
2022/05/27 05:37:44;;;;;;;5.87;4.40;;;;;;;;;;724841;194;732966;-80
2022/05/27 05:40:10;;;;;;;8.00;4.87;;;;;;;;;;725233;194;636499;-80
2022/05/27 05:42:36;;;;;;;4.37;3.80;;;;;;;;;;727019;194;627224;-80
2022/05/27 05:45:02;;;;;;;4.70;3.93;;;;;;;;;;724399;193;625574;-79
2022/05/27 05:47:28;;;;;;;5.33;3.63;;;;;;;;;;724135;195;626283;-79
2022/05/27 05:49:53;;;;;;;5.50;3.70;;;;;;;;;;722722;193;619885;-82
2022/05/27 05:52:19;;;;;;;4.43;3.17;;;;;;;;;;718967;194;630193;-80
2022/05/27 05:54:45;;;;;;;3.43;2.70;;;;;;;;;;724195;194;633214;-80
2022/05/27 05:57:11;;;;;;;4.20;3.03;;;;;;;;;;726429;194;640923;-81
2022/05/27 05:59:38;;;;;;;5.00;3.43;;;;;;;;;;727629;194;613983;-80
2022/05/27 06:02:03;;;;;;;4.80;2.77;;;;;;;;;;726472;194;625852;-78
2022/05/27 06:04:29;;;;;;;10.40;2.60;;;;;;;;;;722756;193;632747;-80
2022/05/27 06:06:55;;;;;;;3.47;2.90;;;;;;;;;;726029;195;635119;-81
2022/05/27 06:09:25;;;;;;;4.33;3.00;;;;;;;;;;724729;195;672822;-79
2022/05/27 06:11:46;;;;;;;4.37;2.73;;;;;;;;;;725312;194;620879;-80
2022/05/27 06:14:13;;;;;;;4.03;2.90;;;;;;;;;;725803;194;711532;-80
2022/05/27 06:16:38;;;;;;;7.70;2.67;;;;;;;;;;722213;192;709894;-79
2022/05/27 06:19:04;;;;;;;4.77;2.83;;;;;;;;;;725225;194;627104;-81
2022/05/27 06:21:30;;;;;;;3.60;2.87;;;;;;;;;;724917;194;783825;-81
2022/05/27 06:23:56;;;;;;;6.53;2.70;;;;;;;;;;731565;194;613582;-80
2022/05/27 06:26:22;;;;;;;3.70;2.87;;;;;;;;;;719067;194;623888;-82
2022/05/27 06:36:23;;;;;;;5.70;2.50;;;;;;;;;;723679;194;640731;-82
2022/05/27 06:38:48;;;;;;;3.27;2.67;;;;;;;;;;721869;194;633351;-81
2022/05/27 06:41:14;;;;;;;4.53;2.77;;;;;;;;;;726211;193;743883;-80
2022/05/27 06:43:40;;;;;;;4.77;3.10;;;;;;;;;;727266;194;625411;-81
2022/05/27 06:46:06;;;;;;;4.40;2.60;;;;;;;;;;724845;194;747599;-79
2022/05/27 06:48:32;;;;;;;4.17;2.80;;;;;;;;;;724479;194;654180;-79
2022/05/27 06:50:58;;;;;;;4.23;2.80;;;;;;;;;;726738;194;917112;-79
2022/05/27 06:53:23;;;;;;;9.47;3.23;;;;;;;;;;719797;195;918874;-78
2022/05/27 06:55:49;;;;;;;4.37;3.08;;;;;;;;;;719585;195;1100392;-79
2022/05/27 06:58:15;;;;;;;4.53;3.10;;;;;;;;;;722924;194;900989;-76
2022/05/27 07:00:41;;;;;;;10.40;3.20;;;;;;;;;;723034;195;629368;-80
2022/05/27 07:03:07;;;;;;;6.70;3.93;;;;;;;;;;721792;195;651405;-80
2022/05/27 07:05:33;;;;;;;4.53;2.50;;;;;;;;;;725328;195;630120;-80
2022/05/27 07:07:58;;;;;;;7.22;3.10;;;;;;;;;;720948;192;628955;-79
2022/05/27 07:10:24;;;;;;;5.67;2.93;;;;;;;;;;717708;195;645012;-81
2022/05/27 07:12:50;;;;;;;5.40;3.63;;;;;;;;;;717557;194;873042;-82
2022/05/27 07:15:16;;;;;;;6.43;3.70;;;;;;;;;;727108;193;625324;-78
2022/05/27 07:17:42;;;;;;;4.03;2.87;;;;;;;;;;722864;193;723455;-81
2022/05/27 07:20:08;;;;;;;7.70;3.57;;;;;;;;;;721212;195;626735;-80
2022/05/27 07:22:34;;;;;;;4.50;2.83;;;;;;;;;;726117;194;710602;-81
2022/05/27 07:25:00;;;;;;;5.40;3.60;;;;;;;;;;725248;194;636774;-80
2022/05/27 07:27:26;;;;;;;5.87;3.33;;;;;;;;;;725338;193;656439;-82
2022/05/27 07:29:52;;;;;;;4.90;3.37;;;;;;;;;;728559;194;641406;-81
2022/05/27 07:32:17;;;;;;;4.10;3.27;;;;;;;;;;723873;194;674244;-80
2022/05/27 07:34:44;;;;;;;6.73;3.77;;;;;;;;;;725335;194;649181;-81
2022/05/27 07:37:10;;;;;;;6.03;3.80;;;;;;;;;;724217;194;709914;-79
2022/05/27 07:39:37;;;;;;;5.47;3.30;;;;;;;;;;725095;194;830349;-80
2022/05/27 07:42:02;;;;;;;5.07;3.00;;;;;;;;;;725106;194;614806;-79
2022/05/27 07:44:27;;;;;;;4.87;3.33;;;;;;;;;;724928;194;630327;-81
2022/05/27 07:46:53;;;;;;;6.90;3.30;;;;;;;;;;725730;194;627985;-82
2022/05/27 07:49:19;;;;;;;4.80;3.67;;;;;;;;;;723575;193;648605;-81
2022/05/27 07:51:46;;;;;;;5.63;3.80;;;;;;;;;;724292;192;627414;-82
2022/05/27 07:54:11;;;;;;;4.00;2.97;;;;;;;;;;730592;193;657212;-81
2022/05/27 07:56:37;;;;;;;4.47;3.03;;;;;;;;;;724898;194;716899;-82
2022/05/27 07:59:03;;;;;;;6.37;3.30;;;;;;;;;;726057;194;645104;-81
2022/05/27 08:01:29;;;;;;;5.80;2.70;;;;;;;;;;725748;194;783337;-81
2022/05/27 08:03:54;;;;;;;4.93;3.23;;;;;;;;;;725043;193;614892;-81
2022/05/27 08:06:20;;;;;;;7.93;3.07;;;;;;;;;;726822;194;627133;-82
2022/05/27 08:08:47;;;;;;;7.70;3.10;;;;;;;;;;724647;194;677827;-83
2022/05/27 08:11:12;;;;;;;7.83;3.03;;;;;;;;;;727547;194;844386;-80
2022/05/27 08:13:39;;;;;;;6.67;3.50;;;;;;;;;;725599;194;637932;-81
2022/05/27 08:16:04;;;;;;;5.67;2.83;;;;;;;;;;723615;194;642262;-81
2022/05/27 08:18:30;;;;;;;4.50;3.67;;;;;;;;;;727248;194;630538;-80
2022/05/27 08:20:55;;;;;;;7.33;3.20;;;;;;;;;;723152;194;634189;-80
2022/05/27 08:23:21;;;;;;;4.23;2.63;;;;;;;;;;723965;193;628068;-83
2022/05/27 08:25:47;;;;;;;3.90;3.37;;;;;;;;;;727022;194;814427;-83
2022/05/27 08:28:13;;;;;;;4.43;2.77;;;;;;;;;;725628;194;711825;-83
2022/05/27 08:30:40;;;;;;;13.23;2.83;;;;;;;;;;725140;195;636107;-82
2022/05/27 08:33:05;;;;;;;6.30;2.90;;;;;;;;;;722610;194;636071;-81
2022/05/27 08:38:05;;;;;;;3.50;2.70;;;;;;;;;;724416;191;657262;-80
2022/05/27 08:40:44;;;;;;;4.47;2.60;;;;;;;;;;725178;194;625958;-82
2022/05/27 08:43:10;;;;;;;6.43;3.30;;;;;;;;;;720262;195;631920;-82
2022/05/27 08:45:37;;;;;;;5.13;2.57;;;;;;;;;;719322;197;650506;-82
2022/05/27 08:48:05;;;;;;;5.27;2.63;;;;;;;;;;719782;194;638994;-81
2022/05/27 08:50:32;;;;;;;7.83;2.70;;;;;;;;;;721887;193;640131;-81
2022/05/27 08:52:57;;;;;;;4.10;2.50;;;;;;;;;;717459;193;738567;-83
2022/05/27 09:00:27;;;;;;;4.10;2.47;;;;;;;;;;722282;194;638666;-81
2022/05/27 09:02:56;;;;;;;3.90;2.20;;;;;;;;;;725459;194;634623;-83
2022/05/27 09:05:22;;;;;;;6.23;2.37;;;;;;;;;;727291;193;714321;-81
2022/05/27 09:07:48;;;;;;;8.90;2.43;;;;;;;;;;723016;194;628238;-84
2022/05/27 09:10:14;;;;;;;5.47;2.50;;;;;;;;;;726612;196;673894;-84
2022/05/27 09:12:58;;;;;;;3.73;2.17;;;;;;;;;;726673;196;647277;-80
2022/05/27 09:15:25;;;;;;;6.80;2.10;;;;;;;;;;720529;194;623840;-84
2022/05/27 09:17:50;;;;;;;11.27;2.13;;;;;;;;;;720232;193;635068;-82
2022/05/27 09:20:21;;;;;;;4.73;2.10;;;;;;;;;;722236;195;643237;-81
2022/05/27 09:22:52;;;;;;;8.43;2.50;;;;;;;;;;721427;193;709783;-84
2022/05/27 09:25:19;;;;;;;5.33;2.40;;;;;;;;;;725366;194;680487;-82
2022/05/27 09:27:51;;;;;;;5.47;2.40;;;;;;;;;;724352;194;633219;-83
2022/05/27 09:30:16;;;;;;;4.80;2.07;;;;;;;;;;724190;193;623348;-83
2022/05/27 09:32:46;;;;;;;4.97;2.70;;;;;;;;;;723950;194;631001;-82
2022/05/27 09:35:18;;;;;;;9.20;2.90;;;;;;;;;;725926;195;616584;-83
2022/05/27 09:37:44;;;;;;;10.60;3.00;;;;;;;;;;725954;195;630167;-84
2022/05/27 09:40:10;;;;;;;6.67;2.43;;;;;;;;;;720805;193;731212;-84
2022/05/27 09:42:36;;;;;;;3.73;2.33;;;;;;;;;;721734;193;634868;-83
2022/05/27 09:45:02;;;;;;;3.53;2.20;;;;;;;;;;728696;194;708854;-83
2022/05/27 09:47:28;;;;;;;4.30;2.47;;;;;;;;;;724944;192;629881;-82
2022/05/27 09:49:56;;;;;;;5.53;2.30;;;;;;;;;;724050;194;620458;-83
2022/05/27 09:52:23;;;;;;;6.53;3.00;;;;;;;;;;723831;194;669316;-83
2022/05/27 09:54:51;;;;;;;6.87;2.90;;;;;;;;;;728759;194;621202;-81
2022/05/27 09:57:23;;;;;;;6.07;2.43;;;;;;;;;;720591;193;747684;-82
2022/05/27 09:59:46;;;;;;;4.73;2.27;;;;;;;;;;728146;194;616639;-83
2022/05/27 10:02:12;;;;;;;6.10;2.30;;;;;;;;;;732174;194;674522;-82
2022/05/27 10:04:38;;;;;;;5.17;2.63;;;;;;;;;;724152;194;628419;-82
2022/05/27 10:07:04;;;;;;;16.30;3.10;;;;;;;;;;722961;195;663051;-81
2022/05/27 10:09:29;;;;;;;3.50;2.30;;;;;;;;;;721877;195;637845;-81
2022/05/27 10:11:56;;;;;;;4.90;2.40;;;;;;;;;;725366;195;630165;-85
2022/05/27 10:14:23;;;;;;;5.80;2.63;;;;;;;;;;724355;194;632937;-82
2022/05/27 10:16:54;;;;;;;4.40;2.30;;;;;;;;;;726036;192;688586;-81
2022/05/27 10:19:22;;;;;;;7.30;2.87;;;;;;;;;;733781;193;614234;-80
2022/05/27 10:21:49;;;;;;;8.03;3.03;;;;;;;;;;736198;188;613593;-82
2022/05/27 10:24:16;;;;;;;4.80;2.80;;;;;;;;;;728684;189;819051;-79
2022/05/27 10:26:42;;;;;;;5.13;2.07;;;;;;;;;;728032;193;820083;-84
2022/05/27 10:29:10;;;;;;;3.80;2.77;;;;;;;;;;729935;193;624294;-83
2022/05/27 10:31:36;;;;;;;4.13;2.43;;;;;;;;;;725869;194;632932;-83
2022/05/27 10:34:02;;;;;;;5.33;3.47;;;;;;;;;;725162;194;759676;-82
2022/05/27 10:36:34;;;;;;;5.30;2.37;;;;;;;;;;729792;194;623996;-82
2022/05/27 10:39:01;;;;;;;8.33;2.70;;;;;;;;;;725286;193;916051;-83
2022/05/27 10:41:29;;;;;;;5.57;2.60;;;;;;;;;;725014;194;639187;-81
2022/05/27 10:44:02;;;;;;;6.80;3.37;;;;;;;;;;722849;193;970854;-81
2022/05/27 10:46:28;;;;;;;5.30;3.10;;;;;;;;;;723886;194;636431;-82
2022/05/27 10:49:12;;;;;;;7.40;2.93;;;;;;;;;;729771;194;638266;-82
2022/05/27 10:51:39;;;;;;;6.50;2.70;;;;;;;;;;720202;195;654873;-82
2022/05/27 10:54:08;;;;;;;7.67;2.67;;;;;;;;;;723737;195;631319;-81
2022/05/27 10:56:34;;;;;;;6.47;2.77;;;;;;;;;;723469;195;763428;-82
2022/05/27 11:04:28;;;;;;;9.03;3.23;;;;;;;;;;725868;194;656810;-83
2022/05/27 11:07:11;;;;;;;6.30;2.60;;;;;;;;;;726514;194;636707;-80
2022/05/27 11:09:48;;;;;;;10.40;2.70;;;;;;;;;;727718;194;628684;-80
2022/05/27 11:12:25;;;;;;;6.32;2.45;;;;;;;;;;723593;194;920943;-84
2022/05/27 11:17:37;;;;;;;8.23;2.50;;;;;;;;;;718440;194;628714;-82
2022/05/27 11:20:19;;;;;;;6.30;3.83;;;;;;;;;;723686;194;638934;-82
2022/05/27 11:22:46;;;;;;;5.43;2.23;;;;;;;;;;713142;195;760744;-85
2022/05/27 11:25:22;;;;;;;5.07;2.17;;;;;;;;;;720899;195;640537;-81
2022/05/27 11:27:50;;;;;;;3.13;2.27;;;;;;;;;;725278;193;617131;-81
2022/05/27 11:30:21;;;;;;;5.80;2.20;;;;;;;;;;712382;194;652179;-81
2022/05/27 11:32:47;;;;;;;5.87;2.40;;;;;;;;;;725336;193;649173;-83
2022/05/27 11:35:19;;;;;;;6.47;2.73;;;;;;;;;;729010;194;625400;-81
2022/05/27 11:37:46;;;;;;;8.40;2.53;;;;;;;;;;733182;193;635331;-81
2022/05/27 11:40:24;;;;;;;3.67;2.50;;;;;;;;;;722283;194;635584;-80
2022/05/27 11:42:56;;;;;;;3.97;1.90;;;;;;;;;;720913;195;788291;-83
2022/05/27 11:45:23;;;;;;;3.70;2.23;;;;;;;;;;724889;194;644138;-85
2022/05/27 11:47:55;;;;;;;5.37;2.33;;;;;;;;;;725559;192;630987;-84
2022/05/27 11:50:26;;;;;;;3.40;2.20;;;;;;;;;;724143;194;641588;-83
2022/05/27 11:52:58;;;;;;;4.90;2.17;;;;;;;;;;724237;194;646490;-83
2022/05/27 11:55:40;;;;;;;5.00;2.17;;;;;;;;;;722852;194;949109;-83
2022/05/27 11:58:06;;;;;;;8.53;2.30;;;;;;;;;;710824;194;689137;-82
2022/05/27 12:00:32;;;;;;;4.10;2.10;;;;;;;;;;725201;194;852252;-83
2022/05/27 12:03:00;;;;;;;6.07;2.53;;;;;;;;;;727474;194;621395;-82
2022/05/27 12:05:26;;;;;;;8.47;2.43;;;;;;;;;;724202;194;647885;-82
2022/05/27 12:07:57;;;;;;;4.97;1.93;;;;;;;;;;723545;192;896918;-81
2022/05/27 12:10:25;;;;;;;4.07;2.60;;;;;;;;;;728080;194;630912;-83
2022/05/27 12:12:59;;;;;;;4.77;2.40;;;;;;;;;;732386;194;626545;-82
2022/05/27 12:15:24;;;;;;;6.27;1.93;;;;;;;;;;729382;194;635142;-80
2022/05/27 12:17:50;;;;;;;3.93;2.33;;;;;;;;;;724460;194;651582;-80
2022/05/27 12:20:16;;;;;;;6.03;2.70;;;;;;;;;;724380;194;635348;-82
2022/05/27 12:22:42;;;;;;;7.70;2.50;;;;;;;;;;729804;194;900413;-85
2022/05/27 12:25:12;;;;;;;6.67;2.20;;;;;;;;;;723076;194;636273;-81
2022/05/27 12:27:38;;;;;;;9.97;2.13;;;;;;;;;;723547;193;953881;-83
2022/05/27 12:30:06;;;;;;;5.83;2.30;;;;;;;;;;725244;194;636287;-80
2022/05/27 12:32:32;;;;;;;2.70;1.93;;;;;;;;;;722608;194;628409;-82
2022/05/27 12:35:03;;;;;;;4.73;2.30;;;;;;;;;;721501;194;642884;-81
2022/05/27 12:37:29;;;;;;;8.37;2.10;;;;;;;;;;717675;195;757518;-83
2022/05/27 12:40:11;;;;;;;4.87;1.90;;;;;;;;;;729001;194;647530;-82
2022/05/27 12:42:39;;;;;;;6.27;2.10;;;;;;;;;;724872;194;646501;-81
2022/05/27 12:45:14;;;;;;;7.47;2.30;;;;;;;;;;725384;194;627767;-82
2022/05/27 12:47:40;;;;;;;8.53;2.60;;;;;;;;;;724518;193;631040;-83
2022/05/27 12:50:07;;;;;;;2.63;1.80;;;;;;;;;;723840;195;629709;-82
2022/05/27 12:52:48;;;;;;;4.27;2.50;;;;;;;;;;725958;195;631224;-83
2022/05/27 12:55:14;;;;;;;3.40;1.80;;;;;;;;;;726058;194;665026;-83
2022/05/27 13:03:25;;;;;;;3.93;1.87;;;;;;;;;;724803;194;627036;-81
2022/05/27 13:06:07;;;;;;;2.77;1.83;;;;;;;;;;728152;194;632148;-82
2022/05/27 13:08:32;;;;;;;3.47;1.80;;;;;;;;;;719871;194;627743;-81
2022/05/27 13:10:58;;;;;;;4.03;1.63;;;;;;;;;;724559;194;639715;-82
2022/05/27 13:13:24;;;;;;;4.10;1.70;;;;;;;;;;724383;193;636245;-81
2022/05/27 13:15:53;;;;;;;2.77;1.57;;;;;;;;;;726721;194;622462;-84
2022/05/27 13:18:34;;;;;;;6.20;1.80;;;;;;;;;;724861;193;638835;-81
2022/05/27 13:21:12;;;;;;;6.87;2.30;;;;;;;;;;724880;194;712310;-85
2022/05/27 13:23:45;;;;;;;5.40;2.07;;;;;;;;;;723802;194;629721;-82
2022/05/27 13:26:11;;;;;;;6.10;2.33;;;;;;;;;;725138;194;629877;-82
2022/05/27 13:28:37;;;;;;;5.97;2.10;;;;;;;;;;727086;194;635140;-82
2022/05/27 13:31:03;;;;;;;11.20;2.33;;;;;;;;;;722555;194;676769;-82
2022/05/27 13:33:30;;;;;;;3.57;2.20;;;;;;;;;;724295;194;642916;-82
2022/05/27 13:35:56;;;;;;;6.80;1.97;;;;;;;;;;724633;194;634354;-82
2022/05/27 13:38:22;;;;;;;3.70;1.63;;;;;;;;;;726846;193;667903;-83
2022/05/27 13:40:47;;;;;;;3.57;2.30;;;;;;;;;;722719;194;899409;-82
2022/05/27 13:43:17;;;;;;;4.13;2.33;;;;;;;;;;723960;194;676238;-83
2022/05/27 13:45:44;;;;;;;6.30;2.13;;;;;;;;;;726764;193;633325;-83
2022/05/27 13:48:10;;;;;;;3.73;2.33;;;;;;;;;;722313;192;637482;-84
2022/05/27 13:50:36;;;;;;;5.70;2.30;;;;;;;;;;722539;193;1137105;-84
2022/05/27 13:53:07;;;;;;;4.07;2.20;;;;;;;;;;727069;193;664810;-85
2022/05/27 13:55:33;;;;;;;4.33;2.37;;;;;;;;;;730618;193;639550;-85
2022/05/27 13:58:00;;;;;;;5.50;2.40;;;;;;;;;;724191;194;892479;-85
2022/05/27 14:00:26;;;;;;;5.10;2.47;;;;;;;;;;725253;194;652656;-85
2022/05/27 14:02:52;;;;;;;6.67;2.20;;;;;;;;;;728514;194;615007;-84
2022/05/27 14:05:25;;;;;;;3.70;2.10;;;;;;;;;;725056;194;631135;-84
2022/05/27 14:07:51;;;;;;;3.00;1.90;;;;;;;;;;724646;194;663778;-85
2022/05/27 14:10:18;;;;;;;6.83;1.97;;;;;;;;;;724820;194;668441;-87
2022/05/27 14:12:45;;;;;;;5.10;1.70;;;;;;;;;;728099;193;666523;-84
2022/05/27 14:15:13;;;;;;;6.10;2.37;;;;;;;;;;723335;194;628469;-87
2022/05/27 14:17:40;;;;;;;5.07;2.23;;;;;;;;;;723518;194;633696;-86
2022/05/27 14:20:05;;;;;;;4.50;1.93;;;;;;;;;;723851;194;851734;-85
2022/05/27 14:25:03;;;;;;;4.37;2.47;;;;;;;;;;721472;195;634358;-83
2022/05/27 14:27:31;;;;;;;4.37;1.90;;;;;;;;;;723580;193;675750;-83
2022/05/27 14:29:54;;;;;;;2.93;1.87;;;;;;;;;;724279;194;630712;-86
2022/05/27 14:32:22;;;;;;;9.43;1.70;;;;;;;;;;708557;195;644724;-82
2022/05/27 14:34:46;;;;;;;2.97;1.70;;;;;;;;;;723886;194;637099;-84
2022/05/27 14:37:12;;;;;;;6.00;1.83;;;;;;;;;;724659;195;633508;-83
2022/05/27 14:39:38;;;;;;;9.30;2.33;;;;;;;;;;727587;193;662991;-83
2022/05/27 14:42:04;;;;;;;3.40;2.13;;;;;;;;;;720509;193;928700;-82
2022/05/27 14:44:30;;;;;;;4.73;2.23;;;;;;;;;;729642;194;637653;-89
2022/05/27 14:47:00;;;;;;;3.87;1.90;;;;;;;;;;725082;194;630673;-84
2022/05/27 14:49:26;;;;;;;3.57;1.90;;;;;;;;;;724628;195;653987;-83
2022/05/27 14:51:51;;;;;;;5.70;5.10;;;;;;;;;;720398;195;817066;-85
2022/05/27 14:54:23;;;;;;;3.03;2.33;;;;;;;;;;720823;194;933198;-83
2022/05/27 14:56:50;;;;;;;3.87;2.53;;;;;;;;;;717046;194;1174356;-83
2022/05/27 14:59:15;;;;;;;3.90;2.70;;;;;;;;;;719936;193;935185;-84
2022/05/27 15:01:41;;;;;;;2.40;1.53;;;;;;;;;;726067;192;683141;-84
2022/05/27 15:04:09;;;;;;;3.53;2.13;;;;;;;;;;728998;194;626097;-82